Time;durP1;ratioP1;P1;durP2;ratioP2;P2;SDS_P1;SDS_P2;PMS_P1;PMS_P2;Temp;Humidity;BMP_temperature;BMP_pressure;BME280_temperature;BME280_humidity;BME280_pressure;Samples;Min_cycle;Max_cycle;Signal;HPM_P1;HPM_P2
2022/01/18 00:01:21;;;;;;;22.00;18.13;;;3.80;99.90;;;;;;5091270;28;20224;-88
2022/01/18 00:03:46;;;;;;;24.00;17.60;;;3.60;99.90;;;;;;5105554;28;20199;-88
2022/01/18 00:06:12;;;;;;;21.93;18.23;;;3.70;99.90;;;;;;5111403;28;20175;-88
2022/01/18 00:08:38;;;;;;;23.83;18.10;;;3.70;99.90;;;;;;5109560;28;20179;-89
2022/01/18 00:11:05;;;;;;;20.93;16.43;;;3.70;99.90;;;;;;5080176;28;20210;-89
2022/01/18 00:13:40;;;;;;;24.97;17.77;;;3.70;99.90;;;;;;5100835;28;20227;-88
2022/01/18 00:18:35;;;;;;;24.67;17.47;;;3.70;99.90;;;;;;5097343;28;20195;-89
2022/01/18 00:23:33;;;;;;;27.80;18.77;;;3.70;99.90;;;;;;5092848;28;20285;-89
2022/01/18 00:25:59;;;;;;;23.07;18.00;;;3.80;99.90;;;;;;5075792;28;20187;-88
2022/01/18 00:28:29;;;;;;;25.07;18.23;;;3.80;99.90;;;;;;5078444;28;20278;-89
2022/01/18 00:34:04;;;;;;;25.60;19.40;;;3.70;99.90;;;;;;5103469;28;20245;-88
2022/01/18 00:36:39;;;;;;;26.13;18.20;;;3.70;99.90;;;;;;5094208;28;20240;-89
2022/01/18 00:39:08;;;;;;;23.10;18.53;;;3.70;99.90;;;;;;5086089;28;20186;-88
2022/01/18 00:41:34;;;;;;;29.43;18.40;;;3.70;99.90;;;;;;5095505;28;20565;-88
2022/01/18 00:44:00;;;;;;;24.10;17.53;;;3.80;99.90;;;;;;5096638;28;20239;-89
2022/01/18 00:46:27;;;;;;;21.87;16.37;;;3.80;99.90;;;;;;5068325;28;20220;-89
2022/01/18 00:48:55;;;;;;;20.97;16.83;;;3.80;99.90;;;;;;5077687;28;20230;-89
2022/01/18 00:51:21;;;;;;;23.50;17.70;;;3.80;99.90;;;;;;5090670;28;20265;-89
2022/01/18 00:53:47;;;;;;;22.80;17.13;;;3.80;99.90;;;;;;5077749;28;20241;-90
2022/01/18 00:58:41;;;;;;;21.43;17.97;;;3.70;99.90;;;;;;5095025;28;20186;-87
2022/01/18 01:01:07;;;;;;;24.53;17.93;;;3.70;99.90;;;;;;5090280;28;20229;-89
2022/01/18 01:03:34;;;;;;;20.10;16.10;;;3.90;99.90;;;;;;5091558;28;20214;-89
2022/01/18 01:06:00;;;;;;;22.17;16.83;;;4.10;99.90;;;;;;5098888;28;20183;-90
2022/01/18 01:08:26;;;;;;;23.40;18.27;;;4.00;99.90;;;;;;5075710;28;20692;-89
2022/01/18 01:10:52;;;;;;;22.17;17.90;;;3.90;99.90;;;;;;5081707;28;20230;-89
2022/01/18 01:13:18;;;;;;;23.20;17.77;;;3.90;99.90;;;;;;5081993;28;20207;-89
2022/01/18 01:16:07;;;;;;;23.83;16.87;;;3.80;99.90;;;;;;5078764;28;20281;-89
2022/01/18 01:32:20;;;;;;;20.10;17.00;;;3.80;99.90;;;;;;5089727;28;20194;-89
2022/01/18 01:42:57;;;;;;;24.07;17.73;;;3.90;99.90;;;;;;5090603;28;20222;-89
2022/01/18 01:45:26;;;;;;;20.40;17.60;;;3.90;99.90;;;;;;5094662;28;20252;-89
2022/01/18 01:47:53;;;;;;;22.53;16.63;;;3.90;99.90;;;;;;5099084;28;20187;-89
2022/01/18 01:50:21;;;;;;;20.70;17.03;;;3.90;99.90;;;;;;5087100;28;20585;-89
2022/01/18 01:52:50;;;;;;;23.50;18.03;;;3.90;99.90;;;;;;5065926;28;20206;-89
2022/01/18 01:55:17;;;;;;;23.73;18.60;;;4.10;99.90;;;;;;5081595;28;20242;-91
2022/01/18 01:57:43;;;;;;;21.63;17.33;;;3.90;99.90;;;;;;5076032;28;20222;-90
2022/01/18 02:00:13;;;;;;;21.07;17.37;;;3.90;99.90;;;;;;5082448;28;20273;-89
2022/01/18 02:02:39;;;;;;;21.17;16.90;;;3.90;99.90;;;;;;5099736;28;20202;-90
2022/01/18 02:05:05;;;;;;;20.33;16.23;;;3.80;99.90;;;;;;5099737;28;20195;-89
2022/01/18 02:07:31;;;;;;;22.50;17.40;;;3.90;99.90;;;;;;5065293;28;20207;-89
2022/01/18 02:09:57;;;;;;;23.87;17.40;;;3.90;99.90;;;;;;5082090;28;20211;-89
2022/01/18 02:12:24;;;;;;;22.93;17.40;;;3.90;99.90;;;;;;5081843;28;20329;-89
2022/01/18 02:14:56;;;;;;;20.83;16.80;;;3.90;99.90;;;;;;5082929;28;20191;-89
2022/01/18 02:22:52;;;;;;;22.10;15.50;;;4.00;99.90;;;;;;5101791;28;20264;-89
2022/01/18 02:25:18;;;;;;;17.93;16.03;;;3.90;99.90;;;;;;5100266;28;20633;-89
2022/01/18 02:27:44;;;;;;;23.40;17.50;;;3.90;99.90;;;;;;5099592;28;20547;-89
2022/01/18 02:30:10;;;;;;;20.27;15.97;;;3.90;99.90;;;;;;5067818;28;20219;-89
2022/01/18 02:32:36;;;;;;;18.87;15.13;;;3.90;99.90;;;;;;5085121;28;20207;-89
2022/01/18 02:35:03;;;;;;;22.53;17.47;;;3.90;99.90;;;;;;5099295;28;20307;-89
2022/01/18 02:37:29;;;;;;;18.40;15.70;;;4.00;99.90;;;;;;5068612;28;20207;-88
2022/01/18 02:39:55;;;;;;;18.40;16.40;;;4.10;99.90;;;;;;5069185;28;20174;-93
2022/01/18 02:42:26;;;;;;;20.43;16.60;;;4.00;99.90;;;;;;5091324;28;20186;-88
2022/01/18 02:44:52;;;;;;;21.43;16.20;;;4.00;99.90;;;;;;5084574;28;20202;-89
2022/01/18 02:47:23;;;;;;;17.10;15.07;;;4.10;99.90;;;;;;5094480;28;20222;-91
2022/01/18 02:49:49;;;;;;;19.03;15.63;;;4.30;99.90;;;;;;5117941;28;20359;-93
2022/01/18 02:52:18;;;;;;;20.10;16.33;;;4.40;99.90;;;;;;5090824;28;20187;-93
2022/01/18 02:54:43;;;;;;;19.43;14.97;;;4.50;99.90;;;;;;5081042;28;20198;-88
2022/01/18 02:57:15;;;;;;;18.63;15.10;;;4.40;99.90;;;;;;5069341;28;20556;-90
2022/01/18 02:59:47;;;;;;;17.27;14.93;;;4.40;99.90;;;;;;5084338;28;20191;-89
2022/01/18 03:05:08;;;;;;;21.13;15.77;;;4.30;99.90;;;;;;5103506;28;20193;-90
2022/01/18 03:07:34;;;;;;;31.83;26.47;;;4.40;99.90;;;;;;5083814;28;20201;-89
2022/01/18 03:10:01;;;;;;;46.53;39.53;;;4.50;99.90;;;;;;5068644;28;20226;-89
2022/01/18 03:12:27;;;;;;;25.83;22.57;;;4.50;99.90;;;;;;5104519;28;20179;-89
2022/01/18 03:14:53;;;;;;;19.70;15.40;;;4.50;99.90;;;;;;5086666;28;20183;-89
2022/01/18 03:17:18;;;;;;;18.90;15.23;;;4.50;99.90;;;;;;5086440;28;20191;-89
2022/01/18 03:19:44;;;;;;;18.73;15.80;;;4.50;99.90;;;;;;5072317;28;20194;-91
2022/01/18 03:22:10;;;;;;;22.90;16.93;;;4.50;99.90;;;;;;5066411;28;20199;-88
2022/01/18 03:29:55;;;;;;;18.40;15.90;;;4.10;99.90;;;;;;5084976;28;20229;-89
2022/01/18 03:32:21;;;;;;;21.87;16.73;;;4.30;99.90;;;;;;5052025;28;20194;-89
2022/01/18 03:34:46;;;;;;;19.43;15.47;;;4.30;99.90;;;;;;5067850;28;20214;-89
2022/01/18 03:37:12;;;;;;;21.60;16.77;;;4.30;99.90;;;;;;5103688;28;20191;-90
2022/01/18 03:39:38;;;;;;;18.90;16.00;;;4.30;99.90;;;;;;5067167;28;20310;-90
2022/01/18 03:45:01;;;;;;;18.30;14.93;;;4.20;99.90;;;;;;5054062;28;20199;-89
2022/01/18 03:47:26;;;;;;;19.43;16.13;;;4.20;99.90;;;;;;5085760;28;20175;-90
2022/01/18 03:49:52;;;;;;;20.87;16.80;;;4.40;99.90;;;;;;5083819;28;20224;-90
2022/01/18 03:52:18;;;;;;;17.87;15.47;;;4.40;99.90;;;;;;5083560;28;20199;-89
2022/01/18 03:54:47;;;;;;;20.20;15.53;;;4.50;99.90;;;;;;5083962;28;20179;-89
2022/01/18 03:57:14;;;;;;;19.10;16.53;;;4.60;99.90;;;;;;5099416;28;20195;-89
2022/01/18 03:59:39;;;;;;;18.23;14.93;;;4.60;99.90;;;;;;5066736;28;20216;-89
2022/01/18 04:02:07;;;;;;;20.90;16.07;;;4.60;99.90;;;;;;5067037;28;20274;-90
2022/01/18 04:04:34;;;;;;;19.07;15.83;;;4.40;99.90;;;;;;5067255;28;20211;-91
2022/01/18 04:07:00;;;;;;;20.67;16.80;;;4.30;99.90;;;;;;5102131;28;20187;-90
2022/01/18 04:09:26;;;;;;;18.67;15.00;;;4.30;99.90;;;;;;5067518;28;20236;-90
2022/01/18 04:11:53;;;;;;;18.53;15.73;;;4.40;99.90;;;;;;5101924;28;20274;-89
2022/01/18 04:14:19;;;;;;;21.23;16.37;;;4.40;99.90;;;;;;5083604;28;20199;-90
2022/01/18 04:27:30;;;;;;;18.17;14.13;;;4.40;99.90;;;;;;5101603;28;20198;-90
2022/01/18 04:29:55;;;;;;;18.13;14.83;;;4.30;99.90;;;;;;5083619;28;20210;-90
2022/01/18 04:32:21;;;;;;;18.63;16.53;;;4.30;99.90;;;;;;5101041;28;20288;-89
2022/01/18 04:34:47;;;;;;;18.37;15.90;;;4.50;99.90;;;;;;5083532;28;20725;-90
2022/01/18 04:37:13;;;;;;;18.23;16.13;;;4.60;99.90;;;;;;5101469;28;20183;-91
2022/01/18 04:39:41;;;;;;;18.03;15.23;;;4.60;99.90;;;;;;5082865;28;20213;-90
2022/01/18 04:42:30;;;;;;;19.03;15.97;;;4.70;99.90;;;;;;5092625;28;20218;-90
2022/01/18 04:50:21;;;;;;;17.50;15.67;;;4.60;99.90;;;;;;5099393;28;20280;-90
2022/01/18 04:52:46;;;;;;;20.97;15.77;;;4.50;99.90;;;;;;5096898;28;20195;-90
2022/01/18 04:55:12;;;;;;;20.63;15.73;;;4.50;99.90;;;;;;5079947;28;20192;-90
2022/01/18 04:57:53;;;;;;;17.40;15.40;;;4.30;99.90;;;;;;5083472;28;20195;-91
2022/01/18 05:00:23;;;;;;;20.47;15.77;;;4.40;99.90;;;;;;5097857;28;20194;-89
2022/01/18 05:02:49;;;;;;;17.80;15.37;;;4.50;99.90;;;;;;5079030;28;20219;-90
2022/01/18 05:05:52;;;;;;;18.20;15.97;;;4.60;99.90;;;;;;5082669;28;20266;-90
2022/01/18 05:08:13;;;;;;;17.20;15.40;;;4.50;99.90;;;;;;5079184;28;20203;-91
2022/01/18 05:10:40;;;;;;;18.90;16.43;;;4.30;99.90;;;;;;5053439;28;20238;-90
2022/01/18 05:13:17;;;;;;;17.63;14.70;;;4.30;99.90;;;;;;5096626;28;20568;-90
2022/01/18 05:15:51;;;;;;;16.70;13.97;;;4.30;99.90;;;;;;5096688;28;20206;-90
2022/01/18 05:23:39;;;;;;;17.67;15.77;;;4.30;99.90;;;;;;5106486;27;20197;-87
2022/01/18 05:26:05;;;;;;;17.93;15.80;;;4.30;99.90;;;;;;5080788;28;20198;-88
2022/01/18 05:28:31;;;;;;;17.67;15.77;;;4.30;99.90;;;;;;5100394;28;20187;-87
2022/01/18 05:30:56;;;;;;;17.77;15.17;;;4.30;99.90;;;;;;5107555;28;20228;-88
2022/01/18 05:33:22;;;;;;;18.50;15.77;;;4.30;99.90;;;;;;5088465;28;20218;-88
2022/01/18 05:35:49;;;;;;;18.67;15.00;;;4.40;99.90;;;;;;5084501;28;20202;-88
2022/01/18 05:38:16;;;;;;;17.30;15.17;;;4.60;99.90;;;;;;5094357;28;20205;-87
2022/01/18 05:40:41;;;;;;;20.33;15.30;;;4.60;99.90;;;;;;5090757;28;20191;-88
2022/01/18 05:43:07;;;;;;;16.80;14.90;;;4.50;99.90;;;;;;5069380;28;20211;-87
2022/01/18 05:45:33;;;;;;;16.67;14.87;;;4.40;99.90;;;;;;5094976;28;20195;-88
2022/01/18 05:47:59;;;;;;;14.13;12.13;;;4.30;99.90;;;;;;5087420;28;20248;-87
2022/01/18 05:50:25;;;;;;;14.47;12.97;;;4.30;99.90;;;;;;5083796;28;20631;-87
2022/01/18 05:52:50;;;;;;;17.73;14.80;;;4.40;99.90;;;;;;5095829;28;20221;-87
2022/01/18 05:55:16;;;;;;;17.13;15.27;;;4.50;99.90;;;;;;5091714;28;20274;-87
2022/01/18 05:57:42;;;;;;;17.00;14.63;;;4.50;99.90;;;;;;5093774;28;20229;-87
2022/01/18 06:00:12;;;;;;;16.87;15.17;;;4.60;99.90;;;;;;5067891;28;20195;-88
2022/01/18 06:07:53;;;;;;;18.20;14.77;;;4.40;99.90;;;;;;5098639;28;20225;-88
2022/01/18 06:10:19;;;;;;;15.47;13.90;;;4.40;99.90;;;;;;5098456;28;20206;-88
2022/01/18 06:12:44;;;;;;;17.33;15.40;;;4.30;99.90;;;;;;5112929;28;20215;-88
2022/01/18 06:15:11;;;;;;;17.20;15.43;;;4.30;99.90;;;;;;5097804;28;20243;-88
2022/01/18 06:17:38;;;;;;;17.47;14.27;;;4.30;99.90;;;;;;5099307;28;20174;-88
2022/01/18 06:20:05;;;;;;;16.93;14.70;;;4.30;99.90;;;;;;5094863;28;20187;-88
2022/01/18 06:22:31;;;;;;;13.70;12.23;;;4.30;99.90;;;;;;5096405;28;20287;-87
2022/01/18 06:24:57;;;;;;;15.37;13.37;;;4.30;99.90;;;;;;5098724;28;20198;-87
2022/01/18 06:27:22;;;;;;;14.80;13.30;;;4.40;99.90;;;;;;5105777;28;20198;-86
2022/01/18 06:29:48;;;;;;;14.43;12.97;;;4.40;99.90;;;;;;5102790;28;20602;-86
2022/01/18 06:32:14;;;;;;;15.13;12.83;;;4.40;99.90;;;;;;5102505;28;20206;-87
2022/01/18 06:34:40;;;;;;;22.73;20.47;;;4.40;99.90;;;;;;5095137;28;20186;-87
2022/01/18 06:37:07;;;;;;;17.60;15.70;;;4.50;99.90;;;;;;5099482;28;20190;-87
2022/01/18 06:39:33;;;;;;;16.33;14.47;;;4.50;99.90;;;;;;5097406;28;20176;-86
2022/01/18 06:41:58;;;;;;;16.23;14.57;;;4.40;99.90;;;;;;5090017;28;20696;-86
2022/01/18 06:44:25;;;;;;;15.87;14.27;;;4.40;99.90;;;;;;5087599;28;20221;-87
2022/01/18 06:46:53;;;;;;;18.93;16.93;;;4.40;99.90;;;;;;5101906;28;20190;-88
2022/01/18 06:49:19;;;;;;;17.33;15.63;;;4.40;99.90;;;;;;5105747;28;20251;-87
2022/01/18 06:51:45;;;;;;;18.90;16.90;;;4.40;99.90;;;;;;5087363;28;20236;-87
2022/01/18 06:54:15;;;;;;;16.63;14.73;;;4.30;99.90;;;;;;5101686;28;20215;-87
2022/01/18 06:56:47;;;;;;;16.23;13.93;;;4.50;99.90;;;;;;5102223;28;20299;-87
2022/01/18 06:59:13;;;;;;;17.53;14.70;;;4.50;99.90;;;;;;5098795;28;20182;-86
2022/01/18 07:01:40;;;;;;;19.60;14.67;;;4.40;99.90;;;;;;5100269;28;20197;-87
2022/01/18 07:04:06;;;;;;;16.47;13.73;;;4.20;99.90;;;;;;5092445;28;20330;-87
2022/01/18 07:06:33;;;;;;;17.80;14.70;;;4.20;99.90;;;;;;5092553;28;20664;-87
2022/01/18 07:08:59;;;;;;;14.07;12.57;;;4.20;99.90;;;;;;5080999;28;20255;-87
2022/01/18 07:11:25;;;;;;;16.60;14.80;;;4.20;99.90;;;;;;5082978;28;20209;-88
2022/01/18 07:13:51;;;;;;;15.43;13.83;;;4.20;99.90;;;;;;5093571;28;20210;-87
2022/01/18 07:16:16;;;;;;;19.37;16.20;;;4.30;99.90;;;;;;5101126;28;20183;-87
2022/01/18 07:18:42;;;;;;;17.50;15.60;;;4.20;99.90;;;;;;5097944;28;20194;-87
2022/01/18 07:21:11;;;;;;;17.83;15.93;;;4.20;99.90;;;;;;5093774;28;20199;-86
2022/01/18 07:23:38;;;;;;;15.87;13.80;;;4.30;99.90;;;;;;5073521;28;20203;-88
2022/01/18 07:26:04;;;;;;;14.83;13.23;;;4.30;99.90;;;;;;5097122;28;20179;-86
2022/01/18 07:28:31;;;;;;;16.20;14.50;;;4.30;99.90;;;;;;5095903;28;20538;-87
2022/01/18 07:30:56;;;;;;;18.50;15.97;;;4.30;99.90;;;;;;5094141;28;20211;-87
2022/01/18 07:33:22;;;;;;;17.40;15.50;;;4.30;99.90;;;;;;5097367;28;20296;-88
2022/01/18 07:35:49;;;;;;;16.27;14.60;;;4.30;99.90;;;;;;5095537;28;20193;-87
2022/01/18 07:38:16;;;;;;;16.67;14.30;;;4.30;99.90;;;;;;5079525;28;20194;-88
2022/01/18 07:40:47;;;;;;;18.77;16.57;;;4.30;99.90;;;;;;5097426;28;20188;-87
2022/01/18 07:43:16;;;;;;;18.60;15.57;;;4.40;99.90;;;;;;5096244;28;20208;-87
2022/01/18 07:45:43;;;;;;;19.30;15.23;;;4.40;99.90;;;;;;5079743;28;20214;-87
2022/01/18 07:48:10;;;;;;;16.57;14.47;;;4.50;99.90;;;;;;5097781;28;20186;-87
2022/01/18 07:50:36;;;;;;;17.23;14.53;;;4.40;99.90;;;;;;5097395;28;20237;-87
2022/01/18 07:53:01;;;;;;;17.63;15.60;;;4.40;99.90;;;;;;5099892;28;20285;-86
2022/01/18 07:55:27;;;;;;;19.17;15.47;;;4.50;99.90;;;;;;5098145;28;20191;-86
2022/01/18 07:57:54;;;;;;;15.87;14.17;;;4.50;99.90;;;;;;5099423;28;20260;-87
2022/01/18 08:00:20;;;;;;;16.30;13.83;;;4.50;99.90;;;;;;5082114;28;20607;-86
2022/01/18 08:02:46;;;;;;;18.57;14.83;;;4.40;99.90;;;;;;5099133;28;20211;-88
2022/01/18 08:05:13;;;;;;;18.73;16.73;;;4.50;99.90;;;;;;5108081;28;20172;-88
2022/01/18 08:07:39;;;;;;;17.27;15.53;;;4.40;99.90;;;;;;5107753;28;20256;-88
2022/01/18 08:10:07;;;;;;;19.10;16.20;;;4.30;99.90;;;;;;5100071;28;20222;-87
2022/01/18 08:12:33;;;;;;;17.80;15.20;;;4.40;99.90;;;;;;5105796;28;20190;-88
2022/01/18 08:15:02;;;;;;;18.03;16.13;;;4.50;99.90;;;;;;5111859;28;20191;-90
2022/01/18 08:17:29;;;;;;;18.40;16.20;;;4.60;99.90;;;;;;5107101;28;20202;-88
2022/01/18 08:19:55;;;;;;;21.27;17.97;;;4.60;99.90;;;;;;5079751;28;20225;-87
2022/01/18 08:22:21;;;;;;;21.33;18.10;;;4.60;99.90;;;;;;5099831;28;20190;-88
2022/01/18 08:24:47;;;;;;;24.33;20.60;;;4.60;99.90;;;;;;5078071;28;20243;-88
2022/01/18 08:27:13;;;;;;;25.17;20.83;;;4.50;99.90;;;;;;5095096;28;20214;-88
2022/01/18 08:29:39;;;;;;;28.80;21.83;;;4.60;99.90;;;;;;5097361;28;20263;-87
2022/01/18 08:32:06;;;;;;;26.43;22.10;;;4.50;99.90;;;;;;5095603;28;20225;-87
2022/01/18 08:34:32;;;;;;;26.23;21.57;;;4.60;99.90;;;;;;5077607;28;20217;-87
2022/01/18 08:36:58;;;;;;;26.00;20.67;;;4.60;99.90;;;;;;5099537;28;20229;-88
2022/01/18 08:39:24;;;;;;;24.87;19.43;;;4.50;99.90;;;;;;5095706;28;20253;-88
2022/01/18 08:41:50;;;;;;;26.87;21.27;;;4.50;99.90;;;;;;5079626;28;20198;-88
2022/01/18 08:44:16;;;;;;;25.73;22.27;;;4.70;99.90;;;;;;5098008;28;20207;-87
2022/01/18 08:46:42;;;;;;;22.10;18.87;;;4.70;99.90;;;;;;5080176;28;20191;-87
2022/01/18 08:49:08;;;;;;;23.90;18.50;;;4.70;99.90;;;;;;5098020;28;20232;-88
2022/01/18 08:51:34;;;;;;;20.97;17.47;;;4.60;99.90;;;;;;5095923;28;20289;-88
2022/01/18 08:54:03;;;;;;;22.00;18.00;;;4.60;99.90;;;;;;5078465;28;20203;-87
2022/01/18 08:56:29;;;;;;;23.97;20.43;;;4.60;99.90;;;;;;5076626;28;20612;-87
2022/01/18 08:58:56;;;;;;;24.17;21.57;;;4.80;99.90;;;;;;5096041;28;20679;-88
2022/01/18 09:01:22;;;;;;;23.43;18.57;;;4.90;99.90;;;;;;5098110;28;20214;-87
2022/01/18 09:03:49;;;;;;;23.80;18.67;;;4.90;99.90;;;;;;5091553;28;20213;-88
2022/01/18 09:06:18;;;;;;;20.80;17.90;;;5.00;99.90;;;;;;5096232;28;20219;-88
2022/01/18 09:08:46;;;;;;;21.00;18.70;;;4.90;99.90;;;;;;5063802;28;20190;-87
2022/01/18 09:11:12;;;;;;;21.50;18.47;;;4.90;99.90;;;;;;5093444;28;20223;-89
2022/01/18 09:13:39;;;;;;;22.53;19.10;;;5.00;99.90;;;;;;5075071;28;20230;-88
2022/01/18 09:16:06;;;;;;;24.47;20.60;;;5.10;99.90;;;;;;5079329;28;20258;-88
2022/01/18 09:18:35;;;;;;;23.40;18.70;;;5.10;99.90;;;;;;5093036;28;20766;-89
2022/01/18 09:21:01;;;;;;;31.83;27.23;;;5.30;99.90;;;;;;5095951;28;20298;-88
2022/01/18 09:23:27;;;;;;;24.77;22.07;;;5.50;99.90;;;;;;5096103;28;20210;-88
2022/01/18 09:25:52;;;;;;;23.00;19.73;;;5.60;99.90;;;;;;5072491;28;20195;-87
2022/01/18 09:28:18;;;;;;;24.70;20.80;;;5.70;99.90;;;;;;5099439;28;20194;-87
2022/01/18 09:30:44;;;;;;;24.17;18.17;;;5.70;99.90;;;;;;5100595;28;20218;-88
2022/01/18 09:33:10;;;;;;;21.20;18.83;;;5.70;99.90;;;;;;5097071;28;20271;-88
2022/01/18 09:35:37;;;;;;;23.20;19.83;;;5.70;99.90;;;;;;5095517;28;20183;-88
2022/01/18 09:38:04;;;;;;;25.03;19.73;;;5.70;99.90;;;;;;5074630;28;20244;-88
2022/01/18 09:40:33;;;;;;;28.90;23.30;;;5.80;99.90;;;;;;5099467;28;20360;-88
2022/01/18 09:43:00;;;;;;;35.57;28.87;;;5.80;99.90;;;;;;5099914;28;20747;-89
2022/01/18 09:45:29;;;;;;;34.40;26.27;;;5.80;99.90;;;;;;5098586;28;20727;-88
2022/01/18 09:47:57;;;;;;;26.50;21.03;;;5.90;99.90;;;;;;5083392;28;20206;-88
2022/01/18 09:50:29;;;;;;;39.93;32.37;;;6.00;99.90;;;;;;5085976;28;20218;-89
2022/01/18 09:52:56;;;;;;;38.50;27.53;;;6.00;99.90;;;;;;5099374;28;20203;-89
2022/01/18 09:55:29;;;;;;;28.00;23.30;;;6.00;99.90;;;;;;5097990;28;20287;-88
2022/01/18 09:57:56;;;;;;;27.93;21.30;;;6.40;99.90;;;;;;5083538;28;20191;-89
2022/01/18 10:00:25;;;;;;;28.20;22.30;;;6.40;99.90;;;;;;5101455;28;20198;-89
2022/01/18 10:02:51;;;;;;;27.57;20.83;;;6.60;99.90;;;;;;5083981;28;20232;-90
2022/01/18 10:05:23;;;;;;;23.37;20.47;;;6.60;99.90;;;;;;5098441;28;20191;-91
2022/01/18 10:08:07;;;;;;;24.53;19.83;;;6.80;99.90;;;;;;5082745;28;20198;-89
2022/01/18 10:10:41;;;;;;;23.27;20.17;;;6.80;99.90;;;;;;5079369;28;20580;-89
2022/01/18 10:13:08;;;;;;;21.60;19.30;;;6.80;99.90;;;;;;5066418;28;20207;-90
2022/01/18 10:15:34;;;;;;;24.03;20.37;;;6.90;99.90;;;;;;5102876;28;20171;-89
2022/01/18 10:18:08;;;;;;;21.67;17.27;;;6.90;99.90;;;;;;5098242;28;20183;-89
2022/01/18 10:20:52;;;;;;;21.87;18.23;;;7.00;99.90;;;;;;5102176;28;20186;-90
2022/01/18 10:23:23;;;;;;;28.10;18.27;;;7.00;99.90;;;;;;5099936;28;20239;-89
2022/01/18 10:25:50;;;;;;;20.37;16.33;;;7.00;99.90;;;;;;5081114;28;20233;-89
2022/01/18 10:28:32;;;;;;;18.80;15.53;;;7.10;99.90;;;;;;5064954;28;20194;-90
2022/01/18 10:31:03;;;;;;;22.03;15.97;;;7.20;99.90;;;;;;5098304;28;20228;-89
2022/01/18 10:33:35;;;;;;;19.27;15.37;;;7.30;99.90;;;;;;5099511;28;20214;-89
2022/01/18 10:36:19;;;;;;;20.80;16.10;;;7.30;99.90;;;;;;5083457;28;20187;-90
2022/01/18 10:38:48;;;;;;;21.47;16.47;;;7.30;99.90;;;;;;5065966;28;20191;-89
2022/01/18 10:41:30;;;;;;;58.20;41.50;;;7.30;99.90;;;;;;5064522;28;20199;-89
2022/01/18 10:44:03;;;;;;;19.73;15.53;;;7.40;99.90;;;;;;5098636;28;20244;-91
2022/01/18 10:46:38;;;;;;;19.17;16.27;;;7.40;99.90;;;;;;5102892;28;20195;-89
2022/01/18 10:49:05;;;;;;;16.30;14.40;;;7.40;99.90;;;;;;5097941;28;20203;-92
2022/01/18 10:51:33;;;;;;;20.13;14.10;;;7.40;99.90;;;;;;5089321;28;20230;-90
2022/01/18 10:54:02;;;;;;;16.53;14.33;;;7.50;99.90;;;;;;5067351;28;20214;-89
2022/01/18 10:56:38;;;;;;;17.17;13.70;;;7.40;99.90;;;;;;5100697;28;20198;-90
2022/01/18 10:59:04;;;;;;;16.33;12.87;;;7.50;98.10;;;;;;5113895;28;20234;-92
2022/01/18 11:01:31;;;;;;;14.37;11.80;;;7.40;98.00;;;;;;5090091;28;20250;-90
2022/01/18 11:04:15;;;;;;;14.73;13.10;;;7.40;98.80;;;;;;5102857;28;20199;-90
2022/01/18 11:06:55;;;;;;;14.43;12.23;;;7.50;98.20;;;;;;5081991;28;20198;-90
2022/01/18 11:09:21;;;;;;;18.17;13.67;;;7.60;98.70;;;;;;5084153;28;20389;-90
2022/01/18 11:11:48;;;;;;;13.73;12.10;;;7.50;99.70;;;;;;5101801;28;20310;-91
2022/01/18 11:14:17;;;;;;;16.43;13.10;;;7.70;97.90;;;;;;5082811;28;20210;-90
2022/01/18 11:16:44;;;;;;;13.97;11.00;;;7.80;97.20;;;;;;5083212;28;20199;-91
2022/01/18 11:19:31;;;;;;;11.37;10.17;;;7.80;95.10;;;;;;5082495;28;20183;-90
2022/01/18 11:22:06;;;;;;;12.07;9.67;;;7.70;95.00;;;;;;5082525;28;20299;-90
2022/01/18 11:24:34;;;;;;;12.57;9.77;;;7.70;94.10;;;;;;5051026;28;20214;-91
2022/01/18 11:27:01;;;;;;;11.23;9.67;;;7.60;95.30;;;;;;5082022;28;20192;-89
2022/01/18 11:29:28;;;;;;;11.13;9.80;;;7.70;96.00;;;;;;5099080;28;20203;-90
2022/01/18 11:31:56;;;;;;;10.57;8.80;;;7.70;95.00;;;;;;5100973;28;20207;-91
2022/01/18 11:34:55;;;;;;;10.50;8.53;;;7.80;95.40;;;;;;5080201;28;20686;-90
2022/01/18 11:37:43;;;;;;;10.87;9.37;;;7.90;94.90;;;;;;5052965;28;20289;-90
2022/01/18 11:40:12;;;;;;;10.03;8.50;;;7.80;94.20;;;;;;5099605;28;20183;-90
2022/01/18 11:42:50;;;;;;;19.67;16.53;;;8.00;93.20;;;;;;5098729;28;20257;-90
2022/01/18 11:45:25;;;;;;;14.37;10.20;;;8.00;93.70;;;;;;5100399;28;20205;-90
2022/01/18 11:48:03;;;;;;;10.30;7.77;;;8.00;92.50;;;;;;5080368;28;20209;-90
2022/01/18 11:50:31;;;;;;;16.10;12.07;;;8.00;92.50;;;;;;5080479;28;20222;-91
2022/01/18 11:53:26;;;;;;;9.57;7.83;;;8.10;92.50;;;;;;5083045;28;20203;-90
2022/01/18 11:55:54;;;;;;;23.10;14.13;;;8.10;90.80;;;;;;5080189;28;20557;-89
2022/01/18 11:58:21;;;;;;;16.70;9.50;;;8.10;90.50;;;;;;5080381;28;20194;-90
2022/01/18 12:00:56;;;;;;;11.47;7.97;;;8.00;91.10;;;;;;5098626;28;20200;-89
2022/01/18 12:03:27;;;;;;;10.97;6.60;;;8.00;90.80;;;;;;5099723;28;20212;-90
2022/01/18 12:06:00;;;;;;;9.83;6.57;;;8.00;90.20;;;;;;5083569;28;20187;-90
2022/01/18 12:08:36;;;;;;;9.27;6.77;;;8.10;89.50;;;;;;5082905;28;20199;-90
2022/01/18 12:11:05;;;;;;;9.10;6.00;;;8.10;90.30;;;;;;5100277;28;20217;-91
2022/01/18 12:13:43;;;;;;;9.27;6.23;;;8.20;90.80;;;;;;5084204;28;20226;-91
2022/01/18 12:16:21;;;;;;;8.33;5.30;;;8.30;89.80;;;;;;5095035;28;20214;-91
2022/01/18 12:18:52;;;;;;;7.07;4.67;;;8.30;88.90;;;;;;5101011;28;20258;-89
2022/01/18 12:21:24;;;;;;;9.33;4.77;;;8.30;88.50;;;;;;5083660;28;20190;-90
2022/01/18 12:23:50;;;;;;;5.47;4.17;;;8.30;86.70;;;;;;5067672;28;20655;-91
2022/01/18 12:34:43;;;;;;;4.27;2.70;;;8.00;86.00;;;;;;5103881;28;20224;-90
2022/01/18 12:37:11;;;;;;;4.40;2.93;;;8.00;84.40;;;;;;5088689;28;20227;-90
2022/01/18 12:39:53;;;;;;;5.93;2.70;;;8.00;84.50;;;;;;5087600;28;20193;-90
2022/01/18 12:45:20;;;;;;;3.87;2.40;;;7.90;82.30;;;;;;5187327;22;20242;-91
2022/01/18 12:48:03;;;;;;;6.73;2.90;;;7.80;82.00;;;;;;5087020;28;20219;-90
2022/01/18 12:50:34;;;;;;;3.70;2.17;;;7.70;83.90;;;;;;5076919;28;20218;-90
2022/01/18 12:53:05;;;;;;;4.10;2.50;;;7.70;81.10;;;;;;5091878;28;20270;-90
2022/01/18 12:55:44;;;;;;;4.20;3.27;;;7.70;81.30;;;;;;5070549;28;20175;-90
2022/01/18 13:01:27;;;;;;;3.03;1.80;;;7.60;82.60;;;;;;5073997;28;20856;-90
2022/01/18 13:04:09;;;;;;;4.50;2.83;;;7.60;80.80;;;;;;5054522;28;20217;-90
2022/01/18 13:06:36;;;;;;;6.57;2.27;;;7.60;82.10;;;;;;5067640;28;20303;-90
2022/01/18 13:09:04;;;;;;;4.90;2.10;;;7.60;80.60;;;;;;5056931;28;20203;-91
2022/01/18 13:12:03;;;;;;;2.23;2.03;;;7.50;80.20;;;;;;5092567;28;20210;-90
2022/01/18 13:14:52;;;;;;;3.57;2.27;;;7.50;81.20;;;;;;5054073;28;20192;-91
2022/01/18 13:24:37;;;;;;;3.87;2.80;;;7.50;81.80;;;;;;4992740;28;20582;-90
2022/01/18 13:29:36;;;;;;;5.00;3.23;;;7.50;78.80;;;;;;5039225;28;20204;-90
2022/01/18 13:32:17;;;;;;;3.03;2.10;;;7.50;80.20;;;;;;5072043;28;20751;-92
2022/01/18 13:35:04;;;;;;;3.67;2.50;;;7.60;78.80;;;;;;5070018;28;20239;-90
2022/01/18 13:37:46;;;;;;;3.13;1.90;;;7.50;79.40;;;;;;5042646;28;20304;-90
2022/01/18 13:40:53;;;;;;;2.30;1.80;;;7.50;79.80;;;;;;5092213;28;20194;-90
2022/01/18 13:43:38;;;;;;;5.10;2.10;;;7.40;77.70;;;;;;5083689;28;20218;-89
2022/01/18 13:46:10;;;;;;;2.00;1.90;;;7.40;79.40;;;;;;5070200;28;20264;-90
2022/01/18 13:48:42;;;;;;;3.50;2.00;;;7.40;76.60;;;;;;5069955;28;20202;-89
2022/01/18 13:51:14;;;;;;;3.23;1.93;;;7.30;79.10;;;;;;5069527;28;20237;-90
2022/01/18 13:53:43;;;;;;;3.17;2.20;;;7.30;79.00;;;;;;5074498;28;20305;-90
2022/01/18 13:56:23;;;;;;;3.13;2.50;;;7.40;79.50;;;;;;5056492;28;20203;-90
2022/01/18 13:59:07;;;;;;;3.03;2.70;;;7.40;80.20;;;;;;5089508;28;20242;-90
2022/01/18 14:01:41;;;;;;;5.43;2.90;;;7.30;79.60;;;;;;5078363;28;20191;-91
2022/01/18 14:04:16;;;;;;;3.20;2.60;;;7.40;79.40;;;;;;5056028;28;20191;-90
2022/01/18 14:06:44;;;;;;;3.17;2.80;;;7.40;79.80;;;;;;5070390;28;20197;-91
2022/01/18 14:09:40;;;;;;;5.37;2.60;;;7.50;78.80;;;;;;5053348;28;20256;-91
2022/01/18 14:12:17;;;;;;;9.47;3.83;;;7.50;78.30;;;;;;5040067;28;20223;-90
2022/01/18 14:14:56;;;;;;;5.57;4.30;;;7.50;78.70;;;;;;5073245;28;20191;-90
2022/01/18 14:17:25;;;;;;;3.63;3.33;;;7.50;78.40;;;;;;5055828;28;20225;-90
2022/01/18 14:20:08;;;;;;;5.67;4.97;;;7.50;77.40;;;;;;5072729;28;20396;-91
2022/01/18 14:22:56;;;;;;;6.23;4.87;;;7.50;78.60;;;;;;5071772;28;20221;-90
2022/01/18 14:25:31;;;;;;;3.90;3.50;;;7.40;79.20;;;;;;5088412;28;20193;-89
2022/01/18 14:31:28;;;;;;;5.60;3.63;;;7.40;77.90;;;;;;5085942;28;20210;-90
2022/01/18 14:34:51;;;;;;;;;;;;;;;;;;;;;
2022/01/18 14:37:40;;;;;;;4.77;3.63;;;7.30;78.60;;;;;;5057944;28;20299;-91